Time;durP1;ratioP1;P1;durP2;ratioP2;P2;SDS_P1;SDS_P2;PMS_P1;PMS_P2;Temp;Humidity;BMP_temperature;BMP_pressure;BME280_temperature;BME280_humidity;BME280_pressure;Samples;Min_cycle;Max_cycle;Signal;HPM_P1;HPM_P2
2022/10/05 00:00:17;;;;;;;12.02;8.93;;;;;;;;;;4968010;28;20043;-77
2022/10/05 00:02:44;;;;;;;14.50;9.45;;;;;;;;;;4971474;28;20043;-77
2022/10/05 00:05:21;;;;;;;12.20;8.93;;;;;;;;;;4961868;28;20054;-76
2022/10/05 00:07:47;;;;;;;11.98;8.38;;;;;;;;;;4938458;28;20105;-76
2022/10/05 00:10:14;;;;;;;13.73;8.70;;;;;;;;;;4965478;28;20428;-77
2022/10/05 00:12:40;;;;;;;10.65;7.88;;;;;;;;;;4954313;28;20044;-76
2022/10/05 00:15:10;;;;;;;12.20;8.23;;;;;;;;;;4962817;28;20043;-76
2022/10/05 00:17:36;;;;;;;9.57;8.30;;;;;;;;;;4966805;28;20088;-76
2022/10/05 00:20:13;;;;;;;12.65;8.75;;;;;;;;;;4967258;28;20066;-76
2022/10/05 00:22:39;;;;;;;11.25;8.55;;;;;;;;;;4961514;28;20056;-76
2022/10/05 00:25:11;;;;;;;10.65;7.88;;;;;;;;;;4967379;28;20509;-76
2022/10/05 00:27:37;;;;;;;10.52;7.47;;;;;;;;;;4970643;28;20074;-76
2022/10/05 00:30:14;;;;;;;10.13;7.45;;;;;;;;;;4963314;28;20502;-76
2022/10/05 00:32:41;;;;;;;12.95;7.60;;;;;;;;;;4954091;28;20097;-76
2022/10/05 00:35:08;;;;;;;11.55;7.38;;;;;;;;;;4959602;28;20125;-76
2022/10/05 00:37:34;;;;;;;9.25;6.95;;;;;;;;;;4973113;28;20069;-77
2022/10/05 00:40:00;;;;;;;9.07;7.00;;;;;;;;;;4969941;28;20083;-76
2022/10/05 00:42:29;;;;;;;10.18;6.20;;;;;;;;;;4957041;28;20039;-76
2022/10/05 00:44:58;;;;;;;8.18;6.03;;;;;;;;;;4966049;28;20145;-76
2022/10/05 00:47:47;;;;;;;8.02;5.65;;;;;;;;;;4956547;28;20039;-76
2022/10/05 00:50:24;;;;;;;7.60;5.95;;;;;;;;;;4969504;28;20513;-76
2022/10/05 00:53:05;;;;;;;7.35;5.57;;;;;;;;;;4970143;28;20050;-76
2022/10/05 00:55:50;;;;;;;9.88;6.10;;;;;;;;;;4961838;28;20049;-76
2022/10/05 00:58:28;;;;;;;7.97;5.70;;;;;;;;;;4956078;28;20122;-77
2022/10/05 01:01:08;;;;;;;6.72;4.88;;;;;;;;;;4972216;28;20065;-76
2022/10/05 01:03:49;;;;;;;9.35;5.10;;;;;;;;;;4967377;28;20074;-77
2022/10/05 01:06:21;;;;;;;8.50;5.07;;;;;;;;;;4955307;28;20086;-76
2022/10/05 01:09:06;;;;;;;6.38;4.70;;;;;;;;;;4955840;28;20052;-76
2022/10/05 01:11:38;;;;;;;6.07;4.97;;;;;;;;;;4968572;28;20047;-76
2022/10/05 01:14:15;;;;;;;6.95;4.72;;;;;;;;;;4969813;28;20074;-76
2022/10/05 01:16:41;;;;;;;7.78;5.15;;;;;;;;;;4960957;28;20118;-77
2022/10/05 01:19:19;;;;;;;9.23;5.18;;;;;;;;;;4967092;28;20498;-77
2022/10/05 01:21:52;;;;;;;8.45;4.90;;;;;;;;;;4973766;28;20042;-76
2022/10/05 01:24:24;;;;;;;6.75;5.05;;;;;;;;;;4964520;28;20106;-77
2022/10/05 01:26:50;;;;;;;6.65;4.97;;;;;;;;;;4970366;28;20039;-76
2022/10/05 01:29:24;;;;;;;8.13;5.13;;;;;;;;;;4974299;28;20057;-76
2022/10/05 01:31:59;;;;;;;7.40;4.70;;;;;;;;;;4968777;28;20047;-77
2022/10/05 01:34:31;;;;;;;6.05;5.07;;;;;;;;;;4955077;28;20177;-77
2022/10/05 01:37:16;;;;;;;7.43;5.13;;;;;;;;;;4956998;28;20051;-77
2022/10/05 01:39:45;;;;;;;6.45;4.85;;;;;;;;;;4954875;29;20043;-76
2022/10/05 01:42:34;;;;;;;8.57;4.90;;;;;;;;;;4971621;28;20039;-77
2022/10/05 01:45:09;;;;;;;6.75;4.80;;;;;;;;;;4955130;28;20058;-77
2022/10/05 01:47:42;;;;;;;5.95;4.95;;;;;;;;;;4954533;28;20043;-76
2022/10/05 01:50:31;;;;;;;10.05;5.20;;;;;;;;;;4964968;28;20100;-76
2022/10/05 01:53:00;;;;;;;7.70;5.65;;;;;;;;;;4955898;28;20518;-77
2022/10/05 01:55:32;;;;;;;10.35;6.07;;;;;;;;;;4961183;28;20413;-76
2022/10/05 01:58:19;;;;;;;7.50;6.00;;;;;;;;;;4954772;28;20043;-76
2022/10/05 02:00:51;;;;;;;9.20;5.80;;;;;;;;;;4970220;28;20054;-76
2022/10/05 02:03:20;;;;;;;8.30;6.05;;;;;;;;;;4961210;28;20063;-77
2022/10/05 02:05:53;;;;;;;9.70;6.20;;;;;;;;;;4969966;28;20046;-76
2022/10/05 02:08:19;;;;;;;9.95;7.07;;;;;;;;;;4956994;28;20050;-76
2022/10/05 02:10:51;;;;;;;10.13;6.50;;;;;;;;;;4955284;28;20043;-76
2022/10/05 02:13:37;;;;;;;10.65;7.13;;;;;;;;;;4954825;28;20050;-77
2022/10/05 02:16:06;;;;;;;9.07;6.40;;;;;;;;;;4960214;28;20059;-76
2022/10/05 02:18:41;;;;;;;9.25;7.13;;;;;;;;;;4972819;28;20065;-77
2022/10/05 02:21:08;;;;;;;9.35;6.70;;;;;;;;;;4958591;28;20471;-76
2022/10/05 02:23:36;;;;;;;10.55;7.28;;;;;;;;;;4961916;28;20093;-76
2022/10/05 02:26:02;;;;;;;9.13;6.95;;;;;;;;;;4953942;28;20047;-77
2022/10/05 02:28:38;;;;;;;11.10;7.65;;;;;;;;;;4954666;28;20069;-77
2022/10/05 02:31:12;;;;;;;9.57;7.18;;;;;;;;;;4964014;28;20039;-76
2022/10/05 02:33:38;;;;;;;9.02;6.28;;;;;;;;;;4955058;28;20039;-76
2022/10/05 02:36:11;;;;;;;8.90;6.80;;;;;;;;;;4954254;28;20047;-77
2022/10/05 02:38:44;;;;;;;9.95;7.55;;;;;;;;;;4952761;28;20044;-76
2022/10/05 02:41:21;;;;;;;8.38;6.78;;;;;;;;;;4966309;28;20057;-77
2022/10/05 02:44:16;;;;;;;9.57;6.30;;;;;;;;;;4960309;28;20454;-76
2022/10/05 02:46:46;;;;;;;8.73;6.60;;;;;;;;;;4918678;29;20090;-77
2022/10/05 02:49:30;;;;;;;9.35;6.72;;;;;;;;;;4915260;29;20044;-76
2022/10/05 02:51:56;;;;;;;8.70;6.43;;;;;;;;;;4932518;29;20056;-76
2022/10/05 02:54:32;;;;;;;8.60;6.00;;;;;;;;;;4932151;28;20075;-76
2022/10/05 02:56:58;;;;;;;7.85;6.00;;;;;;;;;;4928675;29;20087;-77
2022/10/05 02:59:23;;;;;;;7.15;5.63;;;;;;;;;;4913577;29;20086;-77
2022/10/05 03:01:51;;;;;;;8.68;6.40;;;;;;;;;;4929690;29;20414;-76
2022/10/05 03:04:33;;;;;;;7.90;5.55;;;;;;;;;;4932523;29;20392;-76
2022/10/05 03:06:59;;;;;;;9.15;6.40;;;;;;;;;;4927824;29;20056;-76
2022/10/05 03:09:26;;;;;;;9.23;6.10;;;;;;;;;;4931547;29;20054;-77
2022/10/05 03:12:01;;;;;;;7.53;5.88;;;;;;;;;;4913655;29;20052;-78
2022/10/05 03:14:40;;;;;;;8.23;5.72;;;;;;;;;;4930324;29;20094;-76
2022/10/05 03:17:13;;;;;;;6.65;5.25;;;;;;;;;;4931956;28;20064;-76
2022/10/05 03:19:57;;;;;;;6.07;5.07;;;;;;;;;;4935733;29;20052;-77
2022/10/05 03:22:42;;;;;;;6.88;4.90;;;;;;;;;;4939557;29;20059;-76
2022/10/05 03:25:27;;;;;;;5.47;4.55;;;;;;;;;;4955444;28;20486;-76
2022/10/05 03:28:01;;;;;;;5.85;4.50;;;;;;;;;;4954365;28;20058;-77
2022/10/05 03:30:30;;;;;;;7.63;4.50;;;;;;;;;;4953664;28;20047;-76
2022/10/05 03:33:15;;;;;;;6.45;3.97;;;;;;;;;;4957442;28;20414;-76
2022/10/05 03:35:48;;;;;;;6.25;4.00;;;;;;;;;;4967326;28;20520;-77
2022/10/05 03:38:27;;;;;;;6.57;3.58;;;;;;;;;;4954693;28;20058;-76
2022/10/05 03:40:54;;;;;;;6.35;3.80;;;;;;;;;;4958516;28;20122;-76
2022/10/05 03:43:42;;;;;;;4.75;3.85;;;;;;;;;;4962312;28;20059;-76
2022/10/05 03:46:15;;;;;;;8.10;3.90;;;;;;;;;;4963075;28;20096;-76
2022/10/05 03:48:55;;;;;;;6.72;3.63;;;;;;;;;;4956368;28;20062;-77
2022/10/05 03:51:28;;;;;;;7.35;3.70;;;;;;;;;;4954323;28;20521;-76
2022/10/05 03:54:13;;;;;;;5.03;3.55;;;;;;;;;;4965188;28;20389;-76
2022/10/05 03:57:05;;;;;;;5.97;3.60;;;;;;;;;;4966821;28;20117;-76
2022/10/05 03:59:41;;;;;;;5.22;3.60;;;;;;;;;;4969021;28;20078;-76
2022/10/05 04:02:15;;;;;;;3.78;3.17;;;;;;;;;;4964471;28;20043;-76
2022/10/05 04:05:02;;;;;;;5.35;3.53;;;;;;;;;;4953133;28;20047;-76
2022/10/05 04:07:34;;;;;;;3.92;3.30;;;;;;;;;;4954219;28;20130;-77
2022/10/05 04:10:03;;;;;;;5.22;3.22;;;;;;;;;;4958714;28;20047;-76
2022/10/05 04:12:35;;;;;;;4.68;3.15;;;;;;;;;;4959165;28;20055;-76
2022/10/05 04:15:17;;;;;;;5.20;3.55;;;;;;;;;;4960222;28;20043;-76
2022/10/05 04:17:45;;;;;;;4.03;2.92;;;;;;;;;;4972292;28;20043;-76
2022/10/05 04:20:14;;;;;;;5.60;3.17;;;;;;;;;;4956194;29;20490;-76
2022/10/05 04:22:45;;;;;;;4.57;2.80;;;;;;;;;;4957877;28;20055;-76
2022/10/05 04:25:17;;;;;;;4.38;3.00;;;;;;;;;;4962006;28;20043;-76
2022/10/05 04:28:03;;;;;;;7.20;2.80;;;;;;;;;;4956475;28;20048;-76
2022/10/05 04:30:31;;;;;;;4.22;3.22;;;;;;;;;;4940031;28;20044;-76
2022/10/05 04:32:58;;;;;;;4.20;3.00;;;;;;;;;;4972177;28;20099;-76
2022/10/05 04:35:44;;;;;;;4.90;3.50;;;;;;;;;;4968638;28;20051;-76
2022/10/05 04:38:10;;;;;;;5.20;3.45;;;;;;;;;;4956456;28;20052;-76
2022/10/05 04:40:48;;;;;;;4.97;3.13;;;;;;;;;;4955996;28;20039;-76
2022/10/05 04:43:19;;;;;;;4.93;3.20;;;;;;;;;;4974421;28;20046;-76
2022/10/05 04:45:53;;;;;;;5.65;2.78;;;;;;;;;;4969250;28;20538;-76
2022/10/05 04:48:24;;;;;;;5.20;3.30;;;;;;;;;;4975283;28;20057;-76
2022/10/05 04:51:14;;;;;;;3.67;3.20;;;;;;;;;;4972409;28;20213;-76
2022/10/05 04:53:49;;;;;;;3.83;3.10;;;;;;;;;;4953507;28;20059;-76
2022/10/05 04:56:18;;;;;;;4.97;3.30;;;;;;;;;;4965470;28;20409;-76
2022/10/05 04:59:03;;;;;;;5.88;3.60;;;;;;;;;;4955477;28;20046;-76
2022/10/05 05:01:35;;;;;;;6.28;3.92;;;;;;;;;;4959595;28;20085;-76
2022/10/05 05:04:25;;;;;;;6.72;3.83;;;;;;;;;;4955514;29;20039;-76
2022/10/05 05:07:01;;;;;;;6.85;4.30;;;;;;;;;;4974852;28;20639;-78
2022/10/05 05:09:26;;;;;;;;;;;;;;;;;;4966785;28;20038;-76
2022/10/05 05:12:11;;;;;;;7.53;4.53;;;;;;;;;;4964679;28;20335;-76
2022/10/05 05:14:43;;;;;;;6.60;4.18;;;;;;;;;;4956662;28;20094;-76
2022/10/05 05:17:28;;;;;;;5.65;4.30;;;;;;;;;;4959244;28;20043;-76
2022/10/05 05:20:20;;;;;;;6.72;4.28;;;;;;;;;;4966692;28;20130;-76
2022/10/05 05:22:50;;;;;;;8.95;4.38;;;;;;;;;;4971566;28;20104;-76
2022/10/05 05:25:19;;;;;;;6.28;4.78;;;;;;;;;;4975428;28;20129;-76
2022/10/05 05:27:51;;;;;;;7.28;4.40;;;;;;;;;;4967844;28;20525;-76
2022/10/05 05:30:36;;;;;;;6.93;4.68;;;;;;;;;;4959337;28;20585;-76
2022/10/05 05:33:17;;;;;;;6.72;4.93;;;;;;;;;;4954748;28;20082;-76
2022/10/05 05:35:59;;;;;;;6.18;4.53;;;;;;;;;;4955476;28;20055;-76
2022/10/05 05:38:35;;;;;;;8.15;5.22;;;;;;;;;;4955342;28;20054;-76
2022/10/05 05:41:16;;;;;;;6.78;5.00;;;;;;;;;;4967294;28;20100;-76
2022/10/05 05:43:45;;;;;;;7.60;5.03;;;;;;;;;;4955508;28;20044;-76
2022/10/05 05:46:16;;;;;;;6.28;5.20;;;;;;;;;;4965591;28;20096;-76
2022/10/05 05:48:46;;;;;;;8.65;5.25;;;;;;;;;;4968062;28;20039;-76
2022/10/05 05:51:15;;;;;;;8.70;5.13;;;;;;;;;;4962386;28;20550;-76
2022/10/05 05:53:44;;;;;;;7.75;5.50;;;;;;;;;;4971741;28;20042;-76
2022/10/05 05:56:12;;;;;;;6.93;5.28;;;;;;;;;;4955026;28;20044;-76
2022/10/05 05:58:48;;;;;;;7.55;5.30;;;;;;;;;;4963156;28;20081;-76
2022/10/05 06:01:14;;;;;;;;;;;;;;;;;;4964374;28;20047;-76
2022/10/05 06:03:44;;;;;;;8.00;5.50;;;;;;;;;;4961384;28;20419;-77
2022/10/05 06:06:11;;;;;;;6.68;5.43;;;;;;;;;;4978348;28;20039;-79
2022/10/05 06:08:43;;;;;;;9.05;6.28;;;;;;;;;;4973718;28;20058;-82
2022/10/05 06:11:14;;;;;;;9.50;5.57;;;;;;;;;;4973739;28;20057;-78
2022/10/05 06:13:40;;;;;;;9.48;6.05;;;;;;;;;;4958919;28;20082;-78
2022/10/05 06:16:13;;;;;;;7.97;6.45;;;;;;;;;;4960238;29;20130;-79
2022/10/05 06:18:41;;;;;;;8.07;6.05;;;;;;;;;;4954314;29;20584;-79
2022/10/05 06:21:27;;;;;;;9.60;5.70;;;;;;;;;;4954018;29;20421;-79
2022/10/05 06:24:01;;;;;;;6.32;5.40;;;;;;;;;;4954030;28;20051;-79
2022/10/05 06:26:27;;;;;;;7.90;5.20;;;;;;;;;;4953864;29;20430;-79
2022/10/05 06:28:59;;;;;;;9.20;5.50;;;;;;;;;;4954044;29;20047;-79
2022/10/05 06:31:31;;;;;;;6.57;5.53;;;;;;;;;;4953267;28;20047;-79
2022/10/05 06:34:05;;;;;;;7.20;5.65;;;;;;;;;;4955428;28;20055;-79
2022/10/05 06:36:45;;;;;;;7.20;5.55;;;;;;;;;;4954540;28;20522;-79
2022/10/05 06:39:25;;;;;;;8.63;5.45;;;;;;;;;;4954077;29;20120;-79
2022/10/05 06:41:58;;;;;;;9.20;5.93;;;;;;;;;;4964896;28;20474;-79
2022/10/05 06:44:27;;;;;;;6.90;5.38;;;;;;;;;;4957869;28;20047;-79
2022/10/05 06:46:56;;;;;;;7.00;5.50;;;;;;;;;;4963567;28;20054;-78
2022/10/05 06:49:36;;;;;;;6.95;5.78;;;;;;;;;;4963994;28;20043;-77
2022/10/05 06:52:19;;;;;;;8.05;5.53;;;;;;;;;;4963620;28;20054;-78
2022/10/05 06:54:48;;;;;;;8.48;5.00;;;;;;;;;;4961972;28;20108;-78
2022/10/05 06:57:26;;;;;;;7.80;5.50;;;;;;;;;;4959123;28;20043;-78
2022/10/05 07:00:01;;;;;;;7.05;4.90;;;;;;;;;;4972500;28;20482;-78
2022/10/05 07:02:39;;;;;;;6.57;4.72;;;;;;;;;;4972840;28;20043;-79
2022/10/05 07:05:12;;;;;;;7.13;5.28;;;;;;;;;;4963151;28;20188;-78
2022/10/05 07:07:41;;;;;;;7.93;4.85;;;;;;;;;;4966048;28;20039;-78
2022/10/05 07:10:28;;;;;;;5.30;4.70;;;;;;;;;;4953215;28;20521;-79
2022/10/05 07:13:23;;;;;;;6.97;4.60;;;;;;;;;;4959488;28;20110;-78
2022/10/05 07:15:55;;;;;;;6.80;4.70;;;;;;;;;;4963777;28;20039;-77
2022/10/05 07:18:32;;;;;;;7.00;4.75;;;;;;;;;;4957879;28;20065;-78
2022/10/05 07:21:01;;;;;;;6.45;4.50;;;;;;;;;;4971365;28;20039;-77
2022/10/05 07:23:44;;;;;;;6.63;4.40;;;;;;;;;;4958832;28;20054;-76
2022/10/05 07:26:28;;;;;;;5.45;4.30;;;;;;;;;;4957987;28;20117;-80
2022/10/05 07:29:07;;;;;;;5.05;4.00;;;;;;;;;;4961380;28;20092;-82
2022/10/05 07:31:45;;;;;;;5.45;3.90;;;;;;;;;;4960218;28;20047;-76
2022/10/05 07:34:24;;;;;;;4.95;4.13;;;;;;;;;;4963217;28;20050;-77
2022/10/05 07:39:44;;;;;;;4.70;3.80;;;;;;;;;;4960431;28;20047;-76
2022/10/05 07:42:28;;;;;;;4.97;3.80;;;;;;;;;;4960394;28;20130;-77
2022/10/05 07:45:01;;;;;;;6.53;3.50;;;;;;;;;;4970841;28;20080;-77
2022/10/05 07:47:27;;;;;;;4.65;3.47;;;;;;;;;;4970532;28;20078;-79
2022/10/05 07:50:01;;;;;;;4.78;3.40;;;;;;;;;;4996697;28;20018;-77
2022/10/05 07:52:36;;;;;;;4.28;3.10;;;;;;;;;;4961414;28;20051;-79
2022/10/05 07:55:05;;;;;;;4.18;3.08;;;;;;;;;;4956672;29;20049;-79
2022/10/05 07:57:48;;;;;;;3.58;2.90;;;;;;;;;;4953422;29;20051;-80
2022/10/05 08:00:19;;;;;;;4.05;2.80;;;;;;;;;;4972097;28;20045;-79
2022/10/05 08:02:50;;;;;;;4.22;2.60;;;;;;;;;;4966591;28;20028;-78
2022/10/05 08:05:16;;;;;;;6.38;3.28;;;;;;;;;;4955647;28;20074;-78
2022/10/05 08:07:42;;;;;;;3.60;2.50;;;;;;;;;;4965035;28;20043;-77
2022/10/05 08:10:23;;;;;;;3.80;2.47;;;;;;;;;;4963983;28;20058;-83
2022/10/05 08:13:08;;;;;;;4.05;2.58;;;;;;;;;;4970506;28;20082;-83
2022/10/05 08:15:38;;;;;;;3.92;2.50;;;;;;;;;;4970548;28;20050;-78
2022/10/05 08:18:09;;;;;;;2.42;2.08;;;;;;;;;;4971802;28;20401;-79
2022/10/05 08:20:49;;;;;;;2.50;2.10;;;;;;;;;;4954248;28;20047;-77
2022/10/05 08:23:24;;;;;;;2.30;2.10;;;;;;;;;;4950791;28;20493;-78
2022/10/05 08:25:50;;;;;;;3.75;2.20;;;;;;;;;;4950331;28;20406;-78
2022/10/05 08:28:19;;;;;;;3.35;2.15;;;;;;;;;;4952640;28;20418;-77
2022/10/05 08:30:55;;;;;;;2.70;2.05;;;;;;;;;;4959604;28;20043;-77
2022/10/05 08:33:22;;;;;;;3.00;2.10;;;;;;;;;;4970287;28;20062;-77
2022/10/05 08:35:54;;;;;;;2.60;2.10;;;;;;;;;;4970075;28;20047;-77
2022/10/05 08:38:24;;;;;;;2.45;2.10;;;;;;;;;;4954655;28;20051;-78
2022/10/05 08:40:53;;;;;;;5.57;1.98;;;;;;;;;;4952724;28;20050;-77
2022/10/05 08:43:25;;;;;;;3.30;2.10;;;;;;;;;;4966846;28;20173;-77
2022/10/05 08:45:54;;;;;;;2.28;1.80;;;;;;;;;;4961788;28;20086;-77
2022/10/05 08:48:39;;;;;;;4.57;2.72;;;;;;;;;;4952441;28;20125;-77
2022/10/05 08:51:20;;;;;;;4.05;2.10;;;;;;;;;;4951546;28;20502;-77
2022/10/05 08:54:05;;;;;;;2.15;1.77;;;;;;;;;;4953576;28;20525;-77
2022/10/05 08:56:34;;;;;;;2.80;2.00;;;;;;;;;;4968058;28;20509;-78
2022/10/05 08:59:15;;;;;;;2.95;2.15;;;;;;;;;;4966086;28;20520;-78
2022/10/05 09:02:02;;;;;;;7.45;2.10;;;;;;;;;;4962297;28;20040;-79
2022/10/05 09:04:47;;;;;;;3.67;2.00;;;;;;;;;;4963339;28;20043;-76
2022/10/05 09:07:18;;;;;;;4.13;2.20;;;;;;;;;;4963756;28;20043;-76
2022/10/05 09:10:10;;;;;;;4.03;2.30;;;;;;;;;;4960769;28;20047;-76
2022/10/05 09:12:46;;;;;;;5.00;2.10;;;;;;;;;;4940388;29;20051;-77
2022/10/05 09:15:12;;;;;;;3.45;2.30;;;;;;;;;;4955839;28;20051;-76
2022/10/05 09:17:48;;;;;;;4.60;2.35;;;;;;;;;;4956004;29;20047;-77
2022/10/05 09:20:35;;;;;;;4.65;2.30;;;;;;;;;;4960760;28;20039;-79
2022/10/05 09:23:04;;;;;;;4.68;2.60;;;;;;;;;;5004437;28;20051;-76
2022/10/05 09:25:43;;;;;;;5.57;2.40;;;;;;;;;;4974236;28;20070;-76
2022/10/05 09:28:15;;;;;;;6.10;2.42;;;;;;;;;;4963344;28;20105;-76
2022/10/05 09:30:53;;;;;;;3.95;2.88;;;;;;;;;;4974568;28;20077;-77
2022/10/05 09:33:58;;;;;;;3.65;2.60;;;;;;;;;;4967520;28;20062;-76
2022/10/05 09:36:26;;;;;;;3.65;2.72;;;;;;;;;;5027204;28;20049;-77
2022/10/05 09:38:55;;;;;;;4.93;2.65;;;;;;;;;;5034223;28;20397;-76
2022/10/05 09:41:24;;;;;;;3.33;2.65;;;;;;;;;;5014416;28;20046;-76
2022/10/05 09:43:50;;;;;;;3.80;2.90;;;;;;;;;;5033155;28;20060;-76
2022/10/05 09:46:34;;;;;;;4.45;2.92;;;;;;;;;;5033804;28;20045;-76
2022/10/05 09:49:20;;;;;;;4.35;2.80;;;;;;;;;;5034275;28;20045;-76
2022/10/05 09:51:54;;;;;;;4.22;2.88;;;;;;;;;;5017563;28;20112;-76
2022/10/05 09:54:31;;;;;;;3.78;2.80;;;;;;;;;;5007706;28;20108;-76
2022/10/05 09:56:57;;;;;;;5.03;3.10;;;;;;;;;;5033310;28;20041;-76
2022/10/05 09:59:23;;;;;;;4.82;3.50;;;;;;;;;;5028007;28;20076;-76
2022/10/05 10:02:00;;;;;;;3.55;2.85;;;;;;;;;;5029245;28;20053;-76
2022/10/05 10:04:29;;;;;;;5.47;2.90;;;;;;;;;;5031726;28;20516;-76
2022/10/05 10:07:10;;;;;;;3.53;2.92;;;;;;;;;;5009397;28;20062;-76
2022/10/05 10:09:55;;;;;;;5.30;2.80;;;;;;;;;;4960515;28;20544;-76
2022/10/05 10:12:33;;;;;;;3.53;2.80;;;;;;;;;;4954912;29;20055;-75
2022/10/05 10:15:17;;;;;;;4.82;3.13;;;;;;;;;;4954899;28;20071;-77
2022/10/05 10:17:52;;;;;;;4.22;2.78;;;;;;;;;;4954100;28;20049;-76
2022/10/05 10:20:25;;;;;;;5.70;3.30;;;;;;;;;;4955825;28;20051;-77
2022/10/05 10:22:57;;;;;;;3.42;2.80;;;;;;;;;;4954460;28;20058;-76
2022/10/05 10:25:41;;;;;;;3.60;2.90;;;;;;;;;;4954586;28;20039;-76
2022/10/05 10:28:07;;;;;;;4.10;2.90;;;;;;;;;;4963178;28;20047;-76
2022/10/05 10:30:37;;;;;;;5.57;2.90;;;;;;;;;;4974377;28;20069;-76
2022/10/05 10:33:04;;;;;;;4.97;2.92;;;;;;;;;;4973784;28;20118;-76
2022/10/05 10:35:37;;;;;;;7.82;3.15;;;;;;;;;;4967586;28;20118;-76
2022/10/05 10:38:24;;;;;;;5.00;3.30;;;;;;;;;;4969281;28;20112;-75
2022/10/05 10:40:59;;;;;;;4.07;2.95;;;;;;;;;;4963667;28;20047;-76
2022/10/05 10:43:31;;;;;;;4.32;3.30;;;;;;;;;;4961908;28;20088;-75
2022/10/05 10:46:16;;;;;;;4.88;3.25;;;;;;;;;;4972224;28;20066;-75
2022/10/05 10:49:01;;;;;;;4.00;3.60;;;;;;;;;;4957161;28;20051;-76
2022/10/05 10:51:29;;;;;;;5.93;3.20;;;;;;;;;;4965061;28;20043;-75
2022/10/05 10:53:56;;;;;;;6.63;3.65;;;;;;;;;;4961542;28;20043;-75
2022/10/05 10:56:26;;;;;;;3.50;3.03;;;;;;;;;;4961119;28;20044;-75
2022/10/05 10:58:58;;;;;;;3.80;3.17;;;;;;;;;;4966489;28;20086;-75
2022/10/05 11:01:34;;;;;;;5.82;3.53;;;;;;;;;;4964036;28;20040;-75
2022/10/05 11:04:18;;;;;;;4.35;2.78;;;;;;;;;;4972360;28;20110;-75
2022/10/05 11:07:03;;;;;;;4.15;3.10;;;;;;;;;;4973609;28;20039;-76
2022/10/05 11:09:29;;;;;;;3.60;3.20;;;;;;;;;;4974971;28;20066;-75
2022/10/05 11:12:04;;;;;;;5.47;3.20;;;;;;;;;;4976413;28;20051;-74
2022/10/05 11:14:54;;;;;;;5.30;3.67;;;;;;;;;;4975705;28;20053;-76
2022/10/05 11:17:32;;;;;;;4.28;3.63;;;;;;;;;;4968454;28;20562;-76
2022/10/05 11:20:01;;;;;;;4.28;3.70;;;;;;;;;;4965358;28;20046;-75
2022/10/05 11:22:36;;;;;;;3.92;3.53;;;;;;;;;;4982437;28;20093;-76
2022/10/05 11:25:30;;;;;;;6.55;3.75;;;;;;;;;;4988336;28;20106;-76
2022/10/05 11:28:15;;;;;;;3.88;3.55;;;;;;;;;;4949830;29;20058;-77
2022/10/05 11:30:40;;;;;;;5.63;3.60;;;;;;;;;;4959081;28;20057;-76
2022/10/05 11:33:23;;;;;;;4.15;3.75;;;;;;;;;;4957930;28;20126;-75
2022/10/05 11:35:49;;;;;;;4.38;3.83;;;;;;;;;;4962106;28;20401;-75
2022/10/05 11:38:33;;;;;;;5.55;4.07;;;;;;;;;;4973955;28;20374;-75
2022/10/05 11:41:04;;;;;;;4.55;4.15;;;;;;;;;;4967411;28;20079;-75
2022/10/05 11:43:36;;;;;;;12.52;3.85;;;;;;;;;;4955707;29;20126;-75
2022/10/05 11:46:10;;;;;;;4.72;3.42;;;;;;;;;;4955890;29;20073;-76
2022/10/05 11:48:42;;;;;;;6.45;3.63;;;;;;;;;;4957727;29;20051;-76
2022/10/05 11:51:11;;;;;;;5.35;3.60;;;;;;;;;;4958302;28;21012;-76
2022/10/05 11:53:37;;;;;;;5.55;3.60;;;;;;;;;;4958920;29;20414;-76
2022/10/05 11:56:03;;;;;;;6.13;3.38;;;;;;;;;;4971556;28;20047;-76
2022/10/05 11:58:33;;;;;;;4.65;3.15;;;;;;;;;;4975846;28;20042;-76
2022/10/05 12:00:59;;;;;;;3.80;3.30;;;;;;;;;;4970854;28;20415;-76
2022/10/05 12:03:25;;;;;;;4.03;3.00;;;;;;;;;;4972662;28;20062;-76
2022/10/05 12:05:55;;;;;;;3.65;3.20;;;;;;;;;;4975615;28;20102;-75
2022/10/05 12:08:21;;;;;;;3.33;2.88;;;;;;;;;;4975360;28;20127;-75
2022/10/05 12:10:56;;;;;;;3.97;3.10;;;;;;;;;;4973701;28;20042;-76
2022/10/05 12:13:32;;;;;;;4.80;3.10;;;;;;;;;;4955903;28;20054;-75
2022/10/05 12:16:06;;;;;;;5.82;3.30;;;;;;;;;;4956123;29;20184;-76
2022/10/05 12:18:38;;;;;;;4.60;3.20;;;;;;;;;;4955566;29;20087;-76
2022/10/05 12:21:13;;;;;;;4.38;3.00;;;;;;;;;;4955074;28;20043;-75
2022/10/05 12:23:46;;;;;;;5.70;3.80;;;;;;;;;;4955481;29;20105;-76
2022/10/05 12:26:13;;;;;;;4.75;2.92;;;;;;;;;;4956411;28;20109;-76
2022/10/05 12:28:42;;;;;;;4.28;2.90;;;;;;;;;;4957412;29;20100;-76
2022/10/05 12:31:17;;;;;;;4.80;3.35;;;;;;;;;;4958962;28;20043;-76
2022/10/05 12:33:46;;;;;;;5.05;3.20;;;;;;;;;;4959218;29;20070;-76
2022/10/05 12:36:25;;;;;;;3.53;2.90;;;;;;;;;;4973480;28;20059;-75
2022/10/05 12:38:54;;;;;;;3.55;2.95;;;;;;;;;;4975226;28;20513;-76
2022/10/05 12:41:25;;;;;;;3.45;3.15;;;;;;;;;;4976619;28;20043;-76
2022/10/05 12:44:02;;;;;;;5.82;3.15;;;;;;;;;;4978226;28;20054;-76
2022/10/05 12:47:04;;;;;;;5.57;3.15;;;;;;;;;;4978302;28;20043;-76
2022/10/05 12:49:36;;;;;;;4.20;3.15;;;;;;;;;;4947313;28;20049;-76
2022/10/05 12:52:04;;;;;;;3.63;3.00;;;;;;;;;;5014938;28;20108;-76
2022/10/05 12:54:51;;;;;;;4.07;2.80;;;;;;;;;;4937795;29;20070;-76
2022/10/05 12:57:17;;;;;;;3.10;2.80;;;;;;;;;;4936772;29;20139;-76
2022/10/05 12:59:47;;;;;;;4.45;2.78;;;;;;;;;;4937353;29;20079;-76
2022/10/05 13:02:19;;;;;;;4.28;2.78;;;;;;;;;;4935534;29;20388;-76
2022/10/05 13:04:51;;;;;;;9.43;2.60;;;;;;;;;;4944741;29;20083;-82
2022/10/05 13:07:17;;;;;;;5.40;2.95;;;;;;;;;;4950114;29;20036;-76
2022/10/05 13:09:52;;;;;;;3.20;2.90;;;;;;;;;;4934769;28;20079;-75
2022/10/05 13:12:37;;;;;;;4.07;2.80;;;;;;;;;;4945160;28;20059;-75
2022/10/05 13:15:19;;;;;;;6.32;3.20;;;;;;;;;;4910973;29;20056;-76
2022/10/05 13:17:54;;;;;;;4.25;3.35;;;;;;;;;;4931665;29;20060;-75
2022/10/05 13:20:33;;;;;;;4.72;3.70;;;;;;;;;;4942809;29;20062;-75
2022/10/05 13:23:08;;;;;;;4.50;4.10;;;;;;;;;;4954512;28;20050;-75
2022/10/05 13:25:37;;;;;;;5.22;4.28;;;;;;;;;;4958121;28;20086;-75
2022/10/05 13:28:09;;;;;;;6.18;4.38;;;;;;;;;;4956458;28;20050;-75
2022/10/05 13:30:36;;;;;;;6.18;4.63;;;;;;;;;;4956292;28;20429;-75
2022/10/05 13:33:02;;;;;;;5.43;4.68;;;;;;;;;;4956650;28;20047;-75
2022/10/05 13:35:44;;;;;;;5.88;4.70;;;;;;;;;;4961558;28;20042;-75
2022/10/05 13:38:16;;;;;;;4.80;4.40;;;;;;;;;;4975556;28;20051;-75
2022/10/05 13:40:48;;;;;;;7.10;4.30;;;;;;;;;;4975868;28;20073;-75
2022/10/05 13:43:22;;;;;;;4.82;4.22;;;;;;;;;;4975221;28;20104;-75
2022/10/05 13:46:05;;;;;;;7.03;4.43;;;;;;;;;;4959988;28;20126;-75
2022/10/05 13:48:46;;;;;;;5.32;4.15;;;;;;;;;;4966724;28;20429;-75
2022/10/05 13:51:22;;;;;;;6.25;4.43;;;;;;;;;;4967278;28;20050;-75
2022/10/05 13:54:00;;;;;;;6.82;4.15;;;;;;;;;;4965177;28;20470;-75
2022/10/05 13:56:30;;;;;;;6.70;4.20;;;;;;;;;;4956447;28;20082;-75
2022/10/05 13:59:03;;;;;;;6.03;4.38;;;;;;;;;;4968352;28;20046;-75
2022/10/05 14:01:41;;;;;;;7.25;4.63;;;;;;;;;;4955840;28;20051;-74
2022/10/05 14:04:19;;;;;;;6.90;4.07;;;;;;;;;;4971084;28;20043;-79
2022/10/05 14:06:45;;;;;;;5.53;4.45;;;;;;;;;;4975642;28;20046;-75
2022/10/05 14:09:13;;;;;;;6.30;4.13;;;;;;;;;;4975580;28;20081;-75
2022/10/05 14:11:47;;;;;;;7.30;4.47;;;;;;;;;;4975325;28;20072;-75
2022/10/05 14:14:14;;;;;;;9.73;4.22;;;;;;;;;;4976091;28;20050;-75
2022/10/05 14:16:49;;;;;;;5.43;3.80;;;;;;;;;;4976111;28;20383;-75
2022/10/05 14:19:17;;;;;;;5.93;3.72;;;;;;;;;;4972263;28;20085;-75
2022/10/05 14:21:49;;;;;;;5.90;4.18;;;;;;;;;;4958723;28;20059;-75
2022/10/05 14:24:27;;;;;;;6.78;3.88;;;;;;;;;;4956175;28;20042;-81
2022/10/05 14:26:53;;;;;;;5.00;3.75;;;;;;;;;;4958216;28;20505;-75
2022/10/05 14:29:23;;;;;;;5.80;3.92;;;;;;;;;;4983473;28;20043;-75
2022/10/05 14:32:10;;;;;;;7.68;4.20;;;;;;;;;;4979818;28;20039;-75
2022/10/05 14:34:38;;;;;;;7.82;4.40;;;;;;;;;;4952632;28;20051;-75
2022/10/05 14:37:24;;;;;;;4.65;4.03;;;;;;;;;;4965473;28;20100;-75
2022/10/05 14:39:51;;;;;;;5.20;4.30;;;;;;;;;;4949075;28;20077;-75
2022/10/05 14:42:22;;;;;;;6.25;4.32;;;;;;;;;;4970319;29;20051;-75
2022/10/05 14:44:59;;;;;;;5.97;4.15;;;;;;;;;;4972334;28;20078;-74
2022/10/05 14:47:29;;;;;;;7.53;4.43;;;;;;;;;;4960601;28;20079;-75
2022/10/05 14:50:16;;;;;;;5.78;4.30;;;;;;;;;;4969670;28;20348;-75
2022/10/05 14:52:46;;;;;;;7.28;4.38;;;;;;;;;;4956784;28;20081;-75
2022/10/05 14:55:21;;;;;;;15.60;4.40;;;;;;;;;;4940753;29;20076;-74
2022/10/05 14:58:02;;;;;;;6.32;4.30;;;;;;;;;;4964930;28;20446;-75
2022/10/05 15:00:31;;;;;;;5.55;4.07;;;;;;;;;;4957995;28;20126;-75
2022/10/05 15:03:17;;;;;;;4.65;4.00;;;;;;;;;;4956701;28;20126;-75
2022/10/05 15:05:49;;;;;;;6.18;4.40;;;;;;;;;;4957551;28;20094;-75
2022/10/05 15:08:15;;;;;;;6.20;3.92;;;;;;;;;;4957440;28;20050;-75
2022/10/05 15:10:49;;;;;;;7.07;4.00;;;;;;;;;;4959579;28;20043;-75
2022/10/05 15:13:21;;;;;;;6.78;3.83;;;;;;;;;;4964117;28;20047;-75
2022/10/05 15:15:53;;;;;;;6.63;4.10;;;;;;;;;;4960454;28;20078;-75
2022/10/05 15:18:19;;;;;;;9.38;4.38;;;;;;;;;;4970221;28;20059;-74
2022/10/05 15:20:48;;;;;;;4.85;3.88;;;;;;;;;;4956296;28;20127;-74
2022/10/05 15:23:41;;;;;;;7.10;4.35;;;;;;;;;;4955746;28;20477;-75
2022/10/05 15:26:22;;;;;;;5.30;3.97;;;;;;;;;;4957938;28;20055;-74
2022/10/05 15:29:06;;;;;;;6.78;4.10;;;;;;;;;;4963901;28;20039;-75